sensor_id;sensor_type;location;lat;lon;timestamp;P1;durP1;ratioP1;P2;durP2;ratioP2
18653;SDS011;9456;47.824;16.228;2022-10-31T00:09:37;14.57;;;11.07;;
18653;SDS011;9456;47.824;16.228;2022-10-31T00:12:27;19.87;;;11.83;;
18653;SDS011;9456;47.824;16.228;2022-10-31T00:15:14;18.17;;;10.67;;
18653;SDS011;9456;47.824;16.228;2022-10-31T00:18:34;14.37;;;11.30;;
18653;SDS011;9456;47.824;16.228;2022-10-31T00:21:44;14.80;;;11.10;;
18653;SDS011;9456;47.824;16.228;2022-10-31T00:52:09;15.37;;;9.50;;
18653;SDS011;9456;47.824;16.228;2022-10-31T02:17:57;12.07;;;8.70;;
18653;SDS011;9456;47.824;16.228;2022-10-31T02:20:39;13.97;;;8.60;;
18653;SDS011;9456;47.824;16.228;2022-10-31T02:26:48;10.77;;;8.40;;
18653;SDS011;9456;47.824;16.228;2022-10-31T02:32:43;8.73;;;7.03;;
18653;SDS011;9456;47.824;16.228;2022-10-31T02:38:38;9.60;;;7.03;;
18653;SDS011;9456;47.824;16.228;2022-10-31T02:41:50;10.43;;;7.77;;
18653;SDS011;9456;47.824;16.228;2022-10-31T02:44:49;11.07;;;8.30;;
18653;SDS011;9456;47.824;16.228;2022-10-31T05:23:59;7.37;;;6.63;;
18653;SDS011;9456;47.824;16.228;2022-10-31T05:26:29;7.47;;;6.67;;
18653;SDS011;9456;47.824;16.228;2022-10-31T05:32:12;9.87;;;7.27;;
18653;SDS011;9456;47.824;16.228;2022-10-31T05:34:43;10.73;;;7.93;;
18653;SDS011;9456;47.824;16.228;2022-10-31T05:37:15;9.83;;;6.97;;
18653;SDS011;9456;47.824;16.228;2022-10-31T05:40:05;7.73;;;6.90;;
18653;SDS011;9456;47.824;16.228;2022-10-31T05:42:53;8.07;;;6.93;;
18653;SDS011;9456;47.824;16.228;2022-10-31T05:45:42;8.17;;;6.80;;
18653;SDS011;9456;47.824;16.228;2022-10-31T05:48:23;7.93;;;6.80;;
18653;SDS011;9456;47.824;16.228;2022-10-31T05:51:05;7.90;;;7.07;;
18653;SDS011;9456;47.824;16.228;2022-10-31T05:53:46;9.83;;;7.17;;
18653;SDS011;9456;47.824;16.228;2022-10-31T06:01:57;8.87;;;5.90;;
18653;SDS011;9456;47.824;16.228;2022-10-31T06:04:25;8.17;;;6.07;;
18653;SDS011;9456;47.824;16.228;2022-10-31T06:07:12;9.40;;;6.77;;
18653;SDS011;9456;47.824;16.228;2022-10-31T06:09:48;7.47;;;6.33;;
18653;SDS011;9456;47.824;16.228;2022-10-31T06:12:16;7.30;;;5.60;;
18653;SDS011;9456;47.824;16.228;2022-10-31T06:14:55;6.93;;;6.20;;
18653;SDS011;9456;47.824;16.228;2022-10-31T06:20:12;9.97;;;6.73;;
18653;SDS011;9456;47.824;16.228;2022-10-31T06:22:44;6.00;;;5.47;;
18653;SDS011;9456;47.824;16.228;2022-10-31T06:25:18;7.00;;;6.30;;
18653;SDS011;9456;47.824;16.228;2022-10-31T06:31:19;6.67;;;6.03;;
18653;SDS011;9456;47.824;16.228;2022-10-31T06:33:59;8.27;;;6.70;;
18653;SDS011;9456;47.824;16.228;2022-10-31T06:36:48;7.13;;;5.87;;
18653;SDS011;9456;47.824;16.228;2022-10-31T06:39:24;8.53;;;6.13;;
18653;SDS011;9456;47.824;16.228;2022-10-31T06:42:08;6.77;;;6.10;;
18653;SDS011;9456;47.824;16.228;2022-10-31T06:44:56;6.83;;;6.13;;
18653;SDS011;9456;47.824;16.228;2022-10-31T06:47:24;6.90;;;5.23;;
18653;SDS011;9456;47.824;16.228;2022-10-31T06:50:10;7.13;;;5.07;;
18653;SDS011;9456;47.824;16.228;2022-10-31T06:52:53;6.30;;;5.40;;
18653;SDS011;9456;47.824;16.228;2022-10-31T06:55:23;5.80;;;5.20;;
18653;SDS011;9456;47.824;16.228;2022-10-31T06:58:04;5.70;;;5.10;;
18653;SDS011;9456;47.824;16.228;2022-10-31T07:00:34;7.27;;;5.37;;
18653;SDS011;9456;47.824;16.228;2022-10-31T07:03:03;6.10;;;5.50;;
18653;SDS011;9456;47.824;16.228;2022-10-31T07:05:30;6.90;;;5.87;;
18653;SDS011;9456;47.824;16.228;2022-10-31T07:08:00;6.07;;;5.50;;
18653;SDS011;9456;47.824;16.228;2022-10-31T07:10:34;5.13;;;4.70;;
18653;SDS011;9456;47.824;16.228;2022-10-31T07:13:04;5.27;;;4.77;;
18653;SDS011;9456;47.824;16.228;2022-10-31T07:15:59;5.43;;;4.93;;
18653;SDS011;9456;47.824;16.228;2022-10-31T07:18:28;5.47;;;4.97;;
18653;SDS011;9456;47.824;16.228;2022-10-31T07:21:29;5.00;;;4.60;;
18653;SDS011;9456;47.824;16.228;2022-10-31T07:24:14;5.37;;;4.87;;
18653;SDS011;9456;47.824;16.228;2022-10-31T07:32:37;5.20;;;4.80;;
18653;SDS011;9456;47.824;16.228;2022-10-31T07:35:12;5.40;;;4.50;;
18653;SDS011;9456;47.824;16.228;2022-10-31T07:37:56;4.33;;;4.00;;
18653;SDS011;9456;47.824;16.228;2022-10-31T07:40:25;4.93;;;4.47;;
18653;SDS011;9456;47.824;16.228;2022-10-31T07:42:54;5.10;;;4.60;;
18653;SDS011;9456;47.824;16.228;2022-10-31T07:45:21;5.73;;;5.23;;
18653;SDS011;9456;47.824;16.228;2022-10-31T07:47:49;6.83;;;4.33;;
18653;SDS011;9456;47.824;16.228;2022-10-31T07:50:19;6.10;;;5.47;;
18653;SDS011;9456;47.824;16.228;2022-10-31T07:52:47;5.60;;;5.10;;
18653;SDS011;9456;47.824;16.228;2022-10-31T07:55:19;5.60;;;5.10;;
18653;SDS011;9456;47.824;16.228;2022-10-31T07:57:56;5.37;;;4.87;;
18653;SDS011;9456;47.824;16.228;2022-10-31T08:00:24;5.90;;;5.03;;
18653;SDS011;9456;47.824;16.228;2022-10-31T08:02:57;5.40;;;4.90;;
18653;SDS011;9456;47.824;16.228;2022-10-31T08:05:27;6.57;;;4.40;;
18653;SDS011;9456;47.824;16.228;2022-10-31T08:07:57;4.80;;;4.40;;
18653;SDS011;9456;47.824;16.228;2022-10-31T08:10:49;5.00;;;4.60;;
18653;SDS011;9456;47.824;16.228;2022-10-31T08:13:18;5.07;;;4.67;;
18653;SDS011;9456;47.824;16.228;2022-10-31T08:15:46;5.37;;;4.50;;
18653;SDS011;9456;47.824;16.228;2022-10-31T08:18:17;4.90;;;4.13;;
18653;SDS011;9456;47.824;16.228;2022-10-31T08:20:45;5.23;;;4.73;;
18653;SDS011;9456;47.824;16.228;2022-10-31T08:23:13;4.80;;;4.40;;
18653;SDS011;9456;47.824;16.228;2022-10-31T08:25:41;6.10;;;5.20;;
18653;SDS011;9456;47.824;16.228;2022-10-31T08:28:12;5.13;;;4.70;;
18653;SDS011;9456;47.824;16.228;2022-10-31T08:30:45;5.57;;;5.07;;
18653;SDS011;9456;47.824;16.228;2022-10-31T08:33:14;5.70;;;5.20;;
18653;SDS011;9456;47.824;16.228;2022-10-31T08:35:42;6.00;;;5.30;;
18653;SDS011;9456;47.824;16.228;2022-10-31T08:38:15;6.07;;;5.53;;
18653;SDS011;9456;47.824;16.228;2022-10-31T08:40:47;6.00;;;5.40;;
18653;SDS011;9456;47.824;16.228;2022-10-31T08:43:20;6.07;;;5.30;;
18653;SDS011;9456;47.824;16.228;2022-10-31T08:45:49;5.53;;;5.03;;
18653;SDS011;9456;47.824;16.228;2022-10-31T08:48:19;6.00;;;5.43;;
18653;SDS011;9456;47.824;16.228;2022-10-31T08:50:46;5.10;;;4.70;;
18653;SDS011;9456;47.824;16.228;2022-10-31T08:53:15;6.47;;;5.87;;
18653;SDS011;9456;47.824;16.228;2022-10-31T08:55:43;6.00;;;5.40;;
18653;SDS011;9456;47.824;16.228;2022-10-31T08:58:12;6.17;;;5.57;;
18653;SDS011;9456;47.824;16.228;2022-10-31T09:00:41;6.10;;;5.60;;
18653;SDS011;9456;47.824;16.228;2022-10-31T09:03:12;5.73;;;5.23;;
18653;SDS011;9456;47.824;16.228;2022-10-31T09:05:46;5.27;;;4.87;;
18653;SDS011;9456;47.824;16.228;2022-10-31T09:08:13;6.00;;;5.40;;
18653;SDS011;9456;47.824;16.228;2022-10-31T09:10:41;6.07;;;5.20;;
18653;SDS011;9456;47.824;16.228;2022-10-31T09:13:12;8.13;;;7.33;;
18653;SDS011;9456;47.824;16.228;2022-10-31T09:15:41;10.87;;;8.60;;
18653;SDS011;9456;47.824;16.228;2022-10-31T09:18:10;6.63;;;6.03;;
18653;SDS011;9456;47.824;16.228;2022-10-31T09:20:40;6.43;;;5.57;;
18653;SDS011;9456;47.824;16.228;2022-10-31T09:23:09;6.30;;;5.70;;
18653;SDS011;9456;47.824;16.228;2022-10-31T09:25:39;7.03;;;6.37;;
18653;SDS011;9456;47.824;16.228;2022-10-31T09:28:08;7.57;;;6.83;;
18653;SDS011;9456;47.824;16.228;2022-10-31T09:30:37;9.03;;;7.97;;
18653;SDS011;9456;47.824;16.228;2022-10-31T09:33:06;10.43;;;8.30;;
18653;SDS011;9456;47.824;16.228;2022-10-31T09:35:35;8.10;;;7.30;;
18653;SDS011;9456;47.824;16.228;2022-10-31T09:38:05;8.00;;;7.20;;
18653;SDS011;9456;47.824;16.228;2022-10-31T09:40:36;8.83;;;6.67;;
18653;SDS011;9456;47.824;16.228;2022-10-31T09:43:17;6.90;;;6.20;;
18653;SDS011;9456;47.824;16.228;2022-10-31T09:45:53;6.73;;;6.00;;
18653;SDS011;9456;47.824;16.228;2022-10-31T09:48:37;6.73;;;6.13;;
18653;SDS011;9456;47.824;16.228;2022-10-31T09:51:11;6.37;;;5.77;;
18653;SDS011;9456;47.824;16.228;2022-10-31T09:53:51;8.60;;;7.70;;
18653;SDS011;9456;47.824;16.228;2022-10-31T09:56:27;6.83;;;6.13;;
18653;SDS011;9456;47.824;16.228;2022-10-31T09:58:56;9.10;;;7.07;;
18653;SDS011;9456;47.824;16.228;2022-10-31T10:01:28;7.27;;;6.53;;
18653;SDS011;9456;47.824;16.228;2022-10-31T10:03:58;8.50;;;7.10;;
18653;SDS011;9456;47.824;16.228;2022-10-31T10:06:29;8.40;;;7.60;;
18653;SDS011;9456;47.824;16.228;2022-10-31T10:09:09;8.27;;;7.47;;
18653;SDS011;9456;47.824;16.228;2022-10-31T10:11:40;8.40;;;7.43;;
18653;SDS011;9456;47.824;16.228;2022-10-31T10:14:18;10.07;;;8.90;;
18653;SDS011;9456;47.824;16.228;2022-10-31T10:16:54;9.33;;;8.37;;
18653;SDS011;9456;47.824;16.228;2022-10-31T10:19:33;9.83;;;8.57;;
18653;SDS011;9456;47.824;16.228;2022-10-31T10:22:07;8.63;;;7.73;;
18653;SDS011;9456;47.824;16.228;2022-10-31T10:24:48;9.20;;;8.30;;
18653;SDS011;9456;47.824;16.228;2022-10-31T10:27:21;8.87;;;7.90;;
18653;SDS011;9456;47.824;16.228;2022-10-31T10:29:52;9.03;;;8.13;;
18653;SDS011;9456;47.824;16.228;2022-10-31T10:32:24;10.10;;;9.03;;
18653;SDS011;9456;47.824;16.228;2022-10-31T10:34:53;10.00;;;9.00;;
18653;SDS011;9456;47.824;16.228;2022-10-31T10:37:24;10.13;;;9.13;;
18653;SDS011;9456;47.824;16.228;2022-10-31T10:39:55;9.73;;;8.73;;
18653;SDS011;9456;47.824;16.228;2022-10-31T10:42:25;9.87;;;8.87;;
18653;SDS011;9456;47.824;16.228;2022-10-31T10:45:13;9.27;;;7.93;;
18653;SDS011;9456;47.824;16.228;2022-10-31T10:48:02;9.57;;;8.63;;
18653;SDS011;9456;47.824;16.228;2022-10-31T10:50:34;11.13;;;7.63;;
18653;SDS011;9456;47.824;16.228;2022-10-31T10:53:06;9.93;;;8.27;;
18653;SDS011;9456;47.824;16.228;2022-10-31T10:55:36;8.90;;;8.00;;
18653;SDS011;9456;47.824;16.228;2022-10-31T10:58:10;8.63;;;7.50;;
18653;SDS011;9456;47.824;16.228;2022-10-31T11:00:38;9.80;;;8.10;;
18653;SDS011;9456;47.824;16.228;2022-10-31T11:03:10;11.83;;;8.23;;
18653;SDS011;9456;47.824;16.228;2022-10-31T11:05:40;9.23;;;8.13;;
18653;SDS011;9456;47.824;16.228;2022-10-31T11:08:10;8.20;;;7.40;;
18653;SDS011;9456;47.824;16.228;2022-10-31T11:13:44;9.03;;;7.77;;
18653;SDS011;9456;47.824;16.228;2022-10-31T11:16:13;10.50;;;9.17;;
18653;SDS011;9456;47.824;16.228;2022-10-31T11:18:43;10.53;;;8.47;;
18653;SDS011;9456;47.824;16.228;2022-10-31T11:21:19;9.43;;;8.43;;
18653;SDS011;9456;47.824;16.228;2022-10-31T11:23:49;10.47;;;9.13;;
18653;SDS011;9456;47.824;16.228;2022-10-31T11:26:20;9.53;;;8.63;;
18653;SDS011;9456;47.824;16.228;2022-10-31T11:28:58;8.73;;;7.83;;
18653;SDS011;9456;47.824;16.228;2022-10-31T11:31:34;8.63;;;7.83;;
18653;SDS011;9456;47.824;16.228;2022-10-31T11:34:04;9.30;;;8.20;;
18653;SDS011;9456;47.824;16.228;2022-10-31T11:36:35;9.97;;;8.20;;
18653;SDS011;9456;47.824;16.228;2022-10-31T11:39:04;10.23;;;8.40;;
18653;SDS011;9456;47.824;16.228;2022-10-31T11:41:46;9.77;;;8.77;;
18653;SDS011;9456;47.824;16.228;2022-10-31T11:44:21;9.97;;;7.97;;
18653;SDS011;9456;47.824;16.228;2022-10-31T11:46:51;10.30;;;8.80;;
18653;SDS011;9456;47.824;16.228;2022-10-31T11:49:19;9.50;;;8.57;;
18653;SDS011;9456;47.824;16.228;2022-10-31T11:51:50;9.17;;;8.20;;
18653;SDS011;9456;47.824;16.228;2022-10-31T11:54:23;8.80;;;7.90;;
18653;SDS011;9456;47.824;16.228;2022-10-31T11:56:51;9.07;;;8.17;;
18653;SDS011;9456;47.824;16.228;2022-10-31T11:59:24;8.00;;;7.30;;
18653;SDS011;9456;47.824;16.228;2022-10-31T12:01:53;9.47;;;7.73;;
18653;SDS011;9456;47.824;16.228;2022-10-31T12:04:34;10.13;;;9.13;;
18653;SDS011;9456;47.824;16.228;2022-10-31T12:07:04;9.53;;;8.00;;
18653;SDS011;9456;47.824;16.228;2022-10-31T12:09:37;8.87;;;7.60;;
18653;SDS011;9456;47.824;16.228;2022-10-31T12:17:54;8.17;;;7.37;;
18653;SDS011;9456;47.824;16.228;2022-10-31T12:20:29;9.67;;;7.70;;
18653;SDS011;9456;47.824;16.228;2022-10-31T12:23:06;8.47;;;7.67;;
18653;SDS011;9456;47.824;16.228;2022-10-31T12:25:39;9.13;;;8.20;;
18653;SDS011;9456;47.824;16.228;2022-10-31T12:28:19;10.17;;;8.00;;
18653;SDS011;9456;47.824;16.228;2022-10-31T12:30:55;9.23;;;8.30;;
18653;SDS011;9456;47.824;16.228;2022-10-31T12:33:45;8.53;;;7.80;;
18653;SDS011;9456;47.824;16.228;2022-10-31T12:36:20;9.00;;;8.17;;
18653;SDS011;9456;47.824;16.228;2022-10-31T12:38:52;9.10;;;7.73;;
18653;SDS011;9456;47.824;16.228;2022-10-31T12:41:26;10.70;;;9.00;;
18653;SDS011;9456;47.824;16.228;2022-10-31T12:43:57;8.13;;;7.43;;
18653;SDS011;9456;47.824;16.228;2022-10-31T12:46:41;11.37;;;9.60;;
18653;SDS011;9456;47.824;16.228;2022-10-31T12:49:35;10.90;;;9.37;;
18653;SDS011;9456;47.824;16.228;2022-10-31T12:52:10;12.67;;;8.63;;
18653;SDS011;9456;47.824;16.228;2022-10-31T12:54:48;11.33;;;9.60;;
18653;SDS011;9456;47.824;16.228;2022-10-31T12:57:22;9.80;;;8.97;;
18653;SDS011;9456;47.824;16.228;2022-10-31T12:59:51;9.47;;;8.57;;
18653;SDS011;9456;47.824;16.228;2022-10-31T13:02:21;9.57;;;8.57;;
18653;SDS011;9456;47.824;16.228;2022-10-31T13:05:00;9.40;;;8.40;;
18653;SDS011;9456;47.824;16.228;2022-10-31T13:07:30;11.77;;;9.30;;
18653;SDS011;9456;47.824;16.228;2022-10-31T13:10:00;9.40;;;8.50;;
18653;SDS011;9456;47.824;16.228;2022-10-31T13:12:29;10.57;;;9.47;;
18653;SDS011;9456;47.824;16.228;2022-10-31T13:17:45;10.00;;;9.03;;
18653;SDS011;9456;47.824;16.228;2022-10-31T13:20:25;10.23;;;9.23;;
18653;SDS011;9456;47.824;16.228;2022-10-31T13:22:56;10.07;;;8.97;;
18653;SDS011;9456;47.824;16.228;2022-10-31T13:25:28;10.30;;;9.13;;
18653;SDS011;9456;47.824;16.228;2022-10-31T13:28:15;10.10;;;9.10;;
18653;SDS011;9456;47.824;16.228;2022-10-31T13:30:49;10.10;;;9.10;;
18653;SDS011;9456;47.824;16.228;2022-10-31T13:33:22;10.57;;;9.57;;
18653;SDS011;9456;47.824;16.228;2022-10-31T13:38:51;10.53;;;9.43;;
18653;SDS011;9456;47.824;16.228;2022-10-31T13:41:25;10.47;;;9.47;;
18653;SDS011;9456;47.824;16.228;2022-10-31T13:44:05;10.33;;;9.33;;
18653;SDS011;9456;47.824;16.228;2022-10-31T13:46:51;11.67;;;10.47;;
18653;SDS011;9456;47.824;16.228;2022-10-31T13:52:29;13.40;;;10.77;;
18653;SDS011;9456;47.824;16.228;2022-10-31T13:55:02;13.23;;;11.83;;
18653;SDS011;9456;47.824;16.228;2022-10-31T13:57:31;12.60;;;11.30;;
18653;SDS011;9456;47.824;16.228;2022-10-31T13:59:59;13.97;;;12.03;;
18653;SDS011;9456;47.824;16.228;2022-10-31T14:02:29;12.60;;;11.30;;
18653;SDS011;9456;47.824;16.228;2022-10-31T14:04:58;14.67;;;12.30;;
18653;SDS011;9456;47.824;16.228;2022-10-31T14:07:26;13.07;;;11.77;;
18653;SDS011;9456;47.824;16.228;2022-10-31T14:09:55;13.10;;;11.60;;
18653;SDS011;9456;47.824;16.228;2022-10-31T14:12:34;14.53;;;11.73;;
18653;SDS011;9456;47.824;16.228;2022-10-31T14:15:04;16.93;;;12.70;;
18653;SDS011;9456;47.824;16.228;2022-10-31T14:17:36;14.57;;;11.90;;
18653;SDS011;9456;47.824;16.228;2022-10-31T14:20:31;14.83;;;12.63;;
18653;SDS011;9456;47.824;16.228;2022-10-31T14:22:59;15.07;;;13.20;;
18653;SDS011;9456;47.824;16.228;2022-10-31T14:25:40;16.40;;;13.20;;
18653;SDS011;9456;47.824;16.228;2022-10-31T14:28:21;18.70;;;13.03;;
18653;SDS011;9456;47.824;16.228;2022-10-31T14:30:52;17.20;;;13.93;;
18653;SDS011;9456;47.824;16.228;2022-10-31T14:33:23;20.23;;;15.10;;
18653;SDS011;9456;47.824;16.228;2022-10-31T14:35:55;19.27;;;14.97;;
18653;SDS011;9456;47.824;16.228;2022-10-31T14:38:33;22.33;;;17.47;;
18653;SDS011;9456;47.824;16.228;2022-10-31T14:41:13;21.83;;;16.80;;
18653;SDS011;9456;47.824;16.228;2022-10-31T14:43:51;21.33;;;16.33;;
18653;SDS011;9456;47.824;16.228;2022-10-31T14:46:24;19.13;;;14.40;;
18653;SDS011;9456;47.824;16.228;2022-10-31T14:49:02;19.40;;;13.97;;
18653;SDS011;9456;47.824;16.228;2022-10-31T14:51:33;19.07;;;14.77;;
18653;SDS011;9456;47.824;16.228;2022-10-31T14:54:05;24.83;;;14.97;;
18653;SDS011;9456;47.824;16.228;2022-10-31T14:56:46;19.07;;;13.77;;
18653;SDS011;9456;47.824;16.228;2022-10-31T14:59:35;21.27;;;14.63;;
18653;SDS011;9456;47.824;16.228;2022-10-31T15:02:08;21.53;;;14.87;;
18653;SDS011;9456;47.824;16.228;2022-10-31T15:04:39;22.00;;;15.33;;
18653;SDS011;9456;47.824;16.228;2022-10-31T15:07:12;22.67;;;14.80;;
18653;SDS011;9456;47.824;16.228;2022-10-31T15:09:43;28.17;;;15.03;;
18653;SDS011;9456;47.824;16.228;2022-10-31T15:12:21;17.73;;;13.60;;
18653;SDS011;9456;47.824;16.228;2022-10-31T15:20:41;20.43;;;14.07;;
18653;SDS011;9456;47.824;16.228;2022-10-31T15:23:15;18.50;;;14.40;;
18653;SDS011;9456;47.824;16.228;2022-10-31T15:25:44;26.03;;;15.10;;
18653;SDS011;9456;47.824;16.228;2022-10-31T15:28:26;24.50;;;15.17;;
18653;SDS011;9456;47.824;16.228;2022-10-31T15:30:57;23.37;;;14.47;;
18653;SDS011;9456;47.824;16.228;2022-10-31T15:33:27;23.77;;;15.00;;
18653;SDS011;9456;47.824;16.228;2022-10-31T15:35:58;26.67;;;15.50;;
18653;SDS011;9456;47.824;16.228;2022-10-31T15:38:27;25.97;;;15.80;;
18653;SDS011;9456;47.824;16.228;2022-10-31T15:40:57;28.30;;;15.97;;
18653;SDS011;9456;47.824;16.228;2022-10-31T15:43:27;32.77;;;17.40;;
18653;SDS011;9456;47.824;16.228;2022-10-31T15:46:15;34.00;;;19.07;;
18653;SDS011;9456;47.824;16.228;2022-10-31T15:49:00;27.53;;;18.43;;
18653;SDS011;9456;47.824;16.228;2022-10-31T15:52:11;27.03;;;17.70;;
18653;SDS011;9456;47.824;16.228;2022-10-31T15:54:55;28.67;;;17.00;;
18653;SDS011;9456;47.824;16.228;2022-10-31T15:57:53;32.43;;;17.73;;
18653;SDS011;9456;47.824;16.228;2022-10-31T16:00:43;35.60;;;18.13;;
18653;SDS011;9456;47.824;16.228;2022-10-31T16:03:22;27.73;;;17.30;;
18653;SDS011;9456;47.824;16.228;2022-10-31T16:05:52;42.60;;;19.30;;
18653;SDS011;9456;47.824;16.228;2022-10-31T16:08:44;37.30;;;17.83;;
18653;SDS011;9456;47.824;16.228;2022-10-31T16:11:32;37.33;;;17.93;;
18653;SDS011;9456;47.824;16.228;2022-10-31T16:14:00;34.10;;;18.27;;
18653;SDS011;9456;47.824;16.228;2022-10-31T16:16:30;35.73;;;19.93;;
18653;SDS011;9456;47.824;16.228;2022-10-31T16:19:04;44.17;;;20.97;;
18653;SDS011;9456;47.824;16.228;2022-10-31T16:21:50;38.43;;;20.47;;
18653;SDS011;9456;47.824;16.228;2022-10-31T16:24:48;37.67;;;21.53;;
18653;SDS011;9456;47.824;16.228;2022-10-31T16:27:30;36.73;;;20.73;;
18653;SDS011;9456;47.824;16.228;2022-10-31T16:33:20;43.97;;;24.47;;
18653;SDS011;9456;47.824;16.228;2022-10-31T16:35:47;42.63;;;23.53;;
18653;SDS011;9456;47.824;16.228;2022-10-31T16:38:18;41.33;;;23.43;;
18653;SDS011;9456;47.824;16.228;2022-10-31T16:40:52;44.27;;;24.83;;
18653;SDS011;9456;47.824;16.228;2022-10-31T16:43:25;41.17;;;24.90;;
18653;SDS011;9456;47.824;16.228;2022-10-31T16:45:54;38.17;;;23.43;;
18653;SDS011;9456;47.824;16.228;2022-10-31T16:48:23;43.47;;;24.73;;
18653;SDS011;9456;47.824;16.228;2022-10-31T16:50:50;60.37;;;32.70;;
18653;SDS011;9456;47.824;16.228;2022-10-31T16:53:20;39.60;;;23.87;;
18653;SDS011;9456;47.824;16.228;2022-10-31T16:56:21;40.00;;;23.00;;
18653;SDS011;9456;47.824;16.228;2022-10-31T16:58:54;41.40;;;23.27;;
18653;SDS011;9456;47.824;16.228;2022-10-31T17:01:31;36.90;;;22.53;;
18653;SDS011;9456;47.824;16.228;2022-10-31T17:04:14;39.67;;;24.03;;
18653;SDS011;9456;47.824;16.228;2022-10-31T17:06:44;41.77;;;23.23;;
18653;SDS011;9456;47.824;16.228;2022-10-31T17:09:23;42.43;;;24.93;;
18653;SDS011;9456;47.824;16.228;2022-10-31T17:12:00;44.17;;;26.07;;
18653;SDS011;9456;47.824;16.228;2022-10-31T17:14:30;48.67;;;27.77;;
18653;SDS011;9456;47.824;16.228;2022-10-31T17:16:59;44.33;;;24.47;;
18653;SDS011;9456;47.824;16.228;2022-10-31T17:19:28;42.00;;;24.60;;
18653;SDS011;9456;47.824;16.228;2022-10-31T17:22:10;38.53;;;22.63;;
18653;SDS011;9456;47.824;16.228;2022-10-31T17:24:45;40.73;;;23.77;;
18653;SDS011;9456;47.824;16.228;2022-10-31T17:27:16;37.83;;;23.53;;
18653;SDS011;9456;47.824;16.228;2022-10-31T17:29:43;37.50;;;22.07;;
18653;SDS011;9456;47.824;16.228;2022-10-31T17:32:14;37.83;;;22.07;;
18653;SDS011;9456;47.824;16.228;2022-10-31T17:34:43;38.30;;;21.23;;
18653;SDS011;9456;47.824;16.228;2022-10-31T17:37:17;34.37;;;20.07;;
18653;SDS011;9456;47.824;16.228;2022-10-31T17:39:46;33.47;;;20.60;;
18653;SDS011;9456;47.824;16.228;2022-10-31T17:42:19;34.87;;;21.33;;
18653;SDS011;9456;47.824;16.228;2022-10-31T17:44:47;39.27;;;21.07;;
18653;SDS011;9456;47.824;16.228;2022-10-31T17:47:26;33.60;;;20.57;;
18653;SDS011;9456;47.824;16.228;2022-10-31T17:49:55;34.70;;;19.73;;
18653;SDS011;9456;47.824;16.228;2022-10-31T17:52:42;28.77;;;18.37;;
18653;SDS011;9456;47.824;16.228;2022-10-31T17:55:10;34.47;;;18.83;;
18653;SDS011;9456;47.824;16.228;2022-10-31T17:57:44;31.93;;;20.40;;
18653;SDS011;9456;47.824;16.228;2022-10-31T18:00:27;32.80;;;20.63;;
18653;SDS011;9456;47.824;16.228;2022-10-31T18:03:10;36.13;;;20.40;;
18653;SDS011;9456;47.824;16.228;2022-10-31T18:05:38;36.27;;;21.23;;
18653;SDS011;9456;47.824;16.228;2022-10-31T18:08:06;35.83;;;20.40;;
18653;SDS011;9456;47.824;16.228;2022-10-31T18:10:34;34.07;;;21.10;;
18653;SDS011;9456;47.824;16.228;2022-10-31T18:13:04;36.10;;;23.03;;
18653;SDS011;9456;47.824;16.228;2022-10-31T18:15:37;31.13;;;21.03;;
18653;SDS011;9456;47.824;16.228;2022-10-31T18:21:11;32.33;;;19.77;;
18653;SDS011;9456;47.824;16.228;2022-10-31T18:24:07;33.37;;;19.90;;
18653;SDS011;9456;47.824;16.228;2022-10-31T18:27:02;27.93;;;19.13;;
18653;SDS011;9456;47.824;16.228;2022-10-31T18:30:04;26.20;;;17.17;;
18653;SDS011;9456;47.824;16.228;2022-10-31T18:32:52;23.23;;;16.30;;
18653;SDS011;9456;47.824;16.228;2022-10-31T18:35:46;25.17;;;16.03;;
18653;SDS011;9456;47.824;16.228;2022-10-31T18:38:33;25.27;;;16.47;;
18653;SDS011;9456;47.824;16.228;2022-10-31T18:44:51;27.47;;;17.57;;
18653;SDS011;9456;47.824;16.228;2022-10-31T19:00:04;20.00;;;14.47;;
18653;SDS011;9456;47.824;16.228;2022-10-31T19:02:56;20.10;;;16.10;;
18653;SDS011;9456;47.824;16.228;2022-10-31T19:06:02;19.57;;;14.53;;
18653;SDS011;9456;47.824;16.228;2022-10-31T19:08:44;18.37;;;13.47;;
18653;SDS011;9456;47.824;16.228;2022-10-31T19:14:34;18.70;;;14.90;;
18653;SDS011;9456;47.824;16.228;2022-10-31T19:17:19;15.33;;;12.70;;
18653;SDS011;9456;47.824;16.228;2022-10-31T19:20:10;15.33;;;12.50;;
18653;SDS011;9456;47.824;16.228;2022-10-31T19:23:00;15.53;;;13.87;;
18653;SDS011;9456;47.824;16.228;2022-10-31T19:25:56;13.43;;;11.60;;
18653;SDS011;9456;47.824;16.228;2022-10-31T19:28:30;15.17;;;13.10;;
18653;SDS011;9456;47.824;16.228;2022-10-31T19:31:08;15.27;;;11.97;;
18653;SDS011;9456;47.824;16.228;2022-10-31T19:34:12;14.57;;;10.93;;
18653;SDS011;9456;47.824;16.228;2022-10-31T19:36:47;15.33;;;11.73;;
18653;SDS011;9456;47.824;16.228;2022-10-31T19:39:36;14.37;;;11.17;;
18653;SDS011;9456;47.824;16.228;2022-10-31T19:42:29;14.77;;;11.97;;
18653;SDS011;9456;47.824;16.228;2022-10-31T19:45:30;14.47;;;11.10;;
18653;SDS011;9456;47.824;16.228;2022-10-31T19:54:15;14.17;;;11.43;;
18653;SDS011;9456;47.824;16.228;2022-10-31T19:57:15;16.60;;;12.23;;
18653;SDS011;9456;47.824;16.228;2022-10-31T20:00:34;18.63;;;14.80;;
18653;SDS011;9456;47.824;16.228;2022-10-31T20:03:40;17.37;;;13.40;;
18653;SDS011;9456;47.824;16.228;2022-10-31T20:06:34;17.63;;;12.77;;
18653;SDS011;9456;47.824;16.228;2022-10-31T20:09:03;15.40;;;11.93;;
18653;SDS011;9456;47.824;16.228;2022-10-31T20:14:49;14.77;;;11.73;;
18653;SDS011;9456;47.824;16.228;2022-10-31T20:17:16;14.60;;;11.23;;
18653;SDS011;9456;47.824;16.228;2022-10-31T20:19:54;15.03;;;11.43;;
18653;SDS011;9456;47.824;16.228;2022-10-31T20:22:35;18.87;;;12.70;;
18653;SDS011;9456;47.824;16.228;2022-10-31T20:28:26;15.80;;;12.13;;
18653;SDS011;9456;47.824;16.228;2022-10-31T20:31:27;14.80;;;11.43;;
18653;SDS011;9456;47.824;16.228;2022-10-31T20:34:31;16.50;;;11.13;;
18653;SDS011;9456;47.824;16.228;2022-10-31T20:37:11;15.40;;;11.50;;
18653;SDS011;9456;47.824;16.228;2022-10-31T20:39:47;18.37;;;12.33;;
18653;SDS011;9456;47.824;16.228;2022-10-31T20:42:31;16.30;;;12.93;;
18653;SDS011;9456;47.824;16.228;2022-10-31T20:45:18;17.13;;;12.33;;
18653;SDS011;9456;47.824;16.228;2022-10-31T20:50:47;20.17;;;14.03;;
18653;SDS011;9456;47.824;16.228;2022-10-31T20:53:39;15.60;;;12.63;;
18653;SDS011;9456;47.824;16.228;2022-10-31T20:56:27;17.40;;;13.83;;
18653;SDS011;9456;47.824;16.228;2022-10-31T20:59:20;19.00;;;13.83;;
18653;SDS011;9456;47.824;16.228;2022-10-31T21:02:02;17.33;;;12.77;;
18653;SDS011;9456;47.824;16.228;2022-10-31T21:04:57;23.77;;;16.57;;
18653;SDS011;9456;47.824;16.228;2022-10-31T21:07:47;19.90;;;14.30;;
18653;SDS011;9456;47.824;16.228;2022-10-31T21:10:55;17.87;;;13.30;;
18653;SDS011;9456;47.824;16.228;2022-10-31T21:13:30;18.07;;;13.10;;
18653;SDS011;9456;47.824;16.228;2022-10-31T21:16:26;15.93;;;13.40;;
18653;SDS011;9456;47.824;16.228;2022-10-31T21:19:09;14.83;;;12.03;;
18653;SDS011;9456;47.824;16.228;2022-10-31T21:22:11;16.80;;;12.63;;
18653;SDS011;9456;47.824;16.228;2022-10-31T21:42:36;16.13;;;11.57;;
18653;SDS011;9456;47.824;16.228;2022-10-31T21:45:11;17.60;;;13.00;;
18653;SDS011;9456;47.824;16.228;2022-10-31T21:47:53;16.23;;;12.20;;
18653;SDS011;9456;47.824;16.228;2022-10-31T21:50:26;15.00;;;11.60;;
18653;SDS011;9456;47.824;16.228;2022-10-31T21:52:56;14.70;;;11.63;;
18653;SDS011;9456;47.824;16.228;2022-10-31T21:55:48;22.00;;;11.47;;
18653;SDS011;9456;47.824;16.228;2022-10-31T21:58:30;14.50;;;11.13;;
18653;SDS011;9456;47.824;16.228;2022-10-31T22:01:07;13.87;;;11.40;;